Aviation Digital Data Service (ADDS)

Output produced by METARs form (1556 UTC 23 January 2019)
found at http://www.aviationweather.gov/metar/data/
 
METAR text: YMML 231530Z 27007KT 9999 FEW009 BKN011 18/14 Q1015 FM1630 29006KT 9999 SCT006 BKN008 TEMPO 1730/1830 5000 HZ BKN005
Conditions at: YMML (MELBOURNE INTL A, AU) observed 1530 UTC 23 January 2019
Temperature: 18.0°C (64°F)
Dewpoint: 14.0°C (57°F) [RH = 77%]
Pressure (altimeter): 29.97 inches Hg (1015.0 mb)
Winds: from the W (270 degrees) at 8 MPH (7 knots; 3.6 m/s)
Visibility: 6 or more miles (10+ km)
Ceiling: 1100 feet AGL
Clouds: few clouds at 900 feet AGL
broken clouds at 1100 feet AGL
Weather: no significant weather observed at this time

METAR text: YMML 231500Z 27008KT 9999 FEW009 BKN011 18/14 Q1015 FM1600 29006KT 9999 SCT006 BKN008 TEMPO 1700/1800 5000 HZ BKN005
Conditions at: YMML (MELBOURNE INTL A, AU) observed 1500 UTC 23 January 2019
Temperature: 18.0°C (64°F)
Dewpoint: 14.0°C (57°F) [RH = 77%]
Pressure (altimeter): 29.97 inches Hg (1015.0 mb)
Winds: from the W (270 degrees) at 9 MPH (8 knots; 4.1 m/s)
Visibility: 6 or more miles (10+ km)
Ceiling: 1100 feet AGL
Clouds: few clouds at 900 feet AGL
broken clouds at 1100 feet AGL
Weather: no significant weather observed at this time

METAR text: YMML 231430Z 26007KT 9999 FEW009 BKN013 18/14 Q1015 FM1500 29006KT 9999 SCT006 BKN008 TEMPO 1600/1730 5000 HZ BKN005
Conditions at: YMML (MELBOURNE INTL A, AU) observed 1430 UTC 23 January 2019
Temperature: 18.0°C (64°F)
Dewpoint: 14.0°C (57°F) [RH = 77%]
Pressure (altimeter): 29.97 inches Hg (1015.0 mb)
Winds: from the W (260 degrees) at 8 MPH (7 knots; 3.6 m/s)
Visibility: 6 or more miles (10+ km)
Ceiling: 1300 feet AGL
Clouds: few clouds at 900 feet AGL
broken clouds at 1300 feet AGL
Weather: no significant weather observed at this time

METAR text: YMML 231400Z 25009KT 9999 FEW011 BKN013 18/14 Q1015 FM1500 29006KT 9999 SCT006 BKN008 TEMPO 1600/1700 5000 HZ BKN005
Conditions at: YMML (MELBOURNE INTL A, AU) observed 1400 UTC 23 January 2019
Temperature: 18.0°C (64°F)
Dewpoint: 14.0°C (57°F) [RH = 77%]
Pressure (altimeter): 29.97 inches Hg (1015.0 mb)
Winds: from the WSW (250 degrees) at 10 MPH (9 knots; 4.6 m/s)
Visibility: 6 or more miles (10+ km)
Ceiling: 1300 feet AGL
Clouds: few clouds at 1100 feet AGL
broken clouds at 1300 feet AGL
Weather: no significant weather observed at this time

METAR text: YMML 231330Z 25008KT 9999 BKN013 18/13 Q1016 FM1430 29006KT 9999 SCT006 BKN008 TEMPO 1600/1630 5000 HZ BKN005
Conditions at: YMML (MELBOURNE INTL A, AU) observed 1330 UTC 23 January 2019
Temperature: 18.0°C (64°F)
Dewpoint: 13.0°C (55°F) [RH = 73%]
Pressure (altimeter): 30.00 inches Hg (1016.0 mb)
Winds: from the WSW (250 degrees) at 9 MPH (8 knots; 4.1 m/s)
Visibility: 6 or more miles (10+ km)
Ceiling: 1300 feet AGL
Clouds: broken clouds at 1300 feet AGL
Weather: no significant weather observed at this time

METAR text: YMML 231300Z 25008KT 9999 FEW013 BKN015 17/13 Q1016 FM1430 29006KT 9999 SCT006 BKN008
Conditions at: YMML (MELBOURNE INTL A, AU) observed 1300 UTC 23 January 2019
Temperature: 17.0°C (63°F)
Dewpoint: 13.0°C (55°F) [RH = 77%]
Pressure (altimeter): 30.00 inches Hg (1016.0 mb)
Winds: from the WSW (250 degrees) at 9 MPH (8 knots; 4.1 m/s)
Visibility: 6 or more miles (10+ km)
Ceiling: 1500 feet AGL
Clouds: few clouds at 1300 feet AGL
broken clouds at 1500 feet AGL
Weather: no significant weather observed at this time

METAR text: YMML 231230Z 25008KT 9999 BKN015 18/13 Q1016 FM1230 24006KT 9999 SCT015 FM1430 29006KT 9999 SCT006 BKN008 TEMPO 1230/1430 BKN015
Conditions at: YMML (MELBOURNE INTL A, AU) observed 1230 UTC 23 January 2019
Temperature: 18.0°C (64°F)
Dewpoint: 13.0°C (55°F) [RH = 73%]
Pressure (altimeter): 30.00 inches Hg (1016.0 mb)
Winds: from the WSW (250 degrees) at 9 MPH (8 knots; 4.1 m/s)
Visibility: 6 or more miles (10+ km)
Ceiling: 1500 feet AGL
Clouds: broken clouds at 1500 feet AGL
Weather: no significant weather observed at this time

METAR text: YMML 231200Z 22007KT 9999 BKN015 19/14 Q1016 FM1200 24006KT 9999 SCT015 FM1430 29006KT 9999 SCT006 BKN008 TEMPO 1200/1430 BKN015
Conditions at: YMML (MELBOURNE INTL A, AU) observed 1200 UTC 23 January 2019
Temperature: 19.0°C (66°F)
Dewpoint: 14.0°C (57°F) [RH = 73%]
Pressure (altimeter): 30.00 inches Hg (1016.0 mb)
Winds: from the SW (220 degrees) at 8 MPH (7 knots; 3.6 m/s)
Visibility: 6 or more miles (10+ km)
Ceiling: 1500 feet AGL
Clouds: broken clouds at 1500 feet AGL
Weather: no significant weather observed at this time

METAR text: YMML 231130Z 21009KT 9999 FEW015 BKN017 19/15 Q1016 FM1200 24006KT 9999 SCT015 FM1430 29006KT 9999 SCT006 BKN008 TEMPO 1130/1430 BKN015
Conditions at: YMML (MELBOURNE INTL A, AU) observed 1130 UTC 23 January 2019
Temperature: 19.0°C (66°F)
Dewpoint: 15.0°C (59°F) [RH = 78%]
Pressure (altimeter): 30.00 inches Hg (1016.0 mb)
Winds: from the SSW (210 degrees) at 10 MPH (9 knots; 4.6 m/s)
Visibility: 6 or more miles (10+ km)
Ceiling: 1700 feet AGL
Clouds: few clouds at 1500 feet AGL
broken clouds at 1700 feet AGL
Weather: no significant weather observed at this time

METAR text: YMML 231100Z 20007KT 9999 BKN017 18/15 Q1016 FM1200 24006KT 9999 SCT015 TEMPO 1100/1400 BKN015
Conditions at: YMML (MELBOURNE INTL A, AU) observed 1100 UTC 23 January 2019
Temperature: 18.0°C (64°F)
Dewpoint: 15.0°C (59°F) [RH = 83%]
Pressure (altimeter): 30.00 inches Hg (1016.0 mb)
Winds: from the SSW (200 degrees) at 8 MPH (7 knots; 3.6 m/s)
Visibility: 6 or more miles (10+ km)
Ceiling: 1700 feet AGL
Clouds: broken clouds at 1700 feet AGL
Weather: no significant weather observed at this time

METAR text: YMML 231030Z 20007KT 9999 FEW022 18/15 Q1016 FM1130 24006KT 9999 SCT015 TEMPO 1200/1330 BKN015
Conditions at: YMML (MELBOURNE INTL A, AU) observed 1030 UTC 23 January 2019
Temperature: 18.0°C (64°F)
Dewpoint: 15.0°C (59°F) [RH = 83%]
Pressure (altimeter): 30.00 inches Hg (1016.0 mb)
Winds: from the SSW (200 degrees) at 8 MPH (7 knots; 3.6 m/s)
Visibility: 6 or more miles (10+ km)
Ceiling: at least 12,000 feet AGL
Clouds: few clouds at 2200 feet AGL
Weather: no significant weather observed at this time

METAR text: YMML 231000Z 18010KT 9999 FEW022 19/15 Q1015
Conditions at: YMML (MELBOURNE INTL A, AU) observed 1000 UTC 23 January 2019
Temperature: 19.0°C (66°F)
Dewpoint: 15.0°C (59°F) [RH = 78%]
Pressure (altimeter): 29.97 inches Hg (1015.0 mb)
Winds: from the S (180 degrees) at 12 MPH (10 knots; 5.1 m/s)
Visibility: 6 or more miles (10+ km)
Ceiling: at least 12,000 feet AGL
Clouds: few clouds at 2200 feet AGL
Weather: no significant weather observed at this time

METAR text: YMML 230930Z 19010KT 9999 FEW022 19/15 Q1015 NOSIG
Conditions at: YMML (MELBOURNE INTL A, AU) observed 0930 UTC 23 January 2019
Temperature: 19.0°C (66°F)
Dewpoint: 15.0°C (59°F) [RH = 78%]
Pressure (altimeter): 29.97 inches Hg (1015.0 mb)
Winds: from the S (190 degrees) at 12 MPH (10 knots; 5.1 m/s)
Visibility: 6 or more miles (10+ km)
Ceiling: at least 12,000 feet AGL
Clouds: few clouds at 2200 feet AGL
Weather: no significant weather observed at this time

METAR text: YMML 230900Z 18012KT 9999 FEW030 20/15 Q1015
Conditions at: YMML (MELBOURNE INTL A, AU) observed 0900 UTC 23 January 2019
Temperature: 20.0°C (68°F)
Dewpoint: 15.0°C (59°F) [RH = 73%]
Pressure (altimeter): 29.97 inches Hg (1015.0 mb)
Winds: from the S (180 degrees) at 14 MPH (12 knots; 6.2 m/s)
Visibility: 6 or more miles (10+ km)
Ceiling: at least 12,000 feet AGL
Clouds: few clouds at 3000 feet AGL
Weather: no significant weather observed at this time

METAR text: YMML 230830Z 18015KT 9999 FEW030 20/15 Q1015 NOSIG
Conditions at: YMML (MELBOURNE INTL A, AU) observed 0830 UTC 23 January 2019
Temperature: 20.0°C (68°F)
Dewpoint: 15.0°C (59°F) [RH = 73%]
Pressure (altimeter): 29.97 inches Hg (1015.0 mb)
Winds: from the S (180 degrees) at 17 MPH (15 knots; 7.7 m/s)
Visibility: 6 or more miles (10+ km)
Ceiling: at least 12,000 feet AGL
Clouds: few clouds at 3000 feet AGL
Weather: no significant weather observed at this time

METAR text: YMML 230800Z 17016KT 9999 FEW030 21/15 Q1015
Conditions at: YMML (MELBOURNE INTL A, AU) observed 0800 UTC 23 January 2019
Temperature: 21.0°C (70°F)
Dewpoint: 15.0°C (59°F) [RH = 69%]
Pressure (altimeter): 29.97 inches Hg (1015.0 mb)
Winds: from the S (170 degrees) at 18 MPH (16 knots; 8.2 m/s)
Visibility: 6 or more miles (10+ km)
Ceiling: at least 12,000 feet AGL
Clouds: few clouds at 3000 feet AGL
Weather: no significant weather observed at this time

METAR text: YMML 230730Z 18014KT 9999 FEW030 22/14 Q1015 NOSIG
Conditions at: YMML (MELBOURNE INTL A, AU) observed 0730 UTC 23 January 2019
Temperature: 22.0°C (72°F)
Dewpoint: 14.0°C (57°F) [RH = 60%]
Pressure (altimeter): 29.97 inches Hg (1015.0 mb)
Winds: from the S (180 degrees) at 16 MPH (14 knots; 7.2 m/s)
Visibility: 6 or more miles (10+ km)
Ceiling: at least 12,000 feet AGL
Clouds: few clouds at 3000 feet AGL
Weather: no significant weather observed at this time

METAR text: YMML 230700Z 18015KT CAVOK 23/14 Q1015
Conditions at: YMML (MELBOURNE INTL A, AU) observed 0700 UTC 23 January 2019
Temperature: 23.0°C (73°F)
Dewpoint: 14.0°C (57°F) [RH = 57%]
Pressure (altimeter): 29.97 inches Hg (1015.0 mb)
Winds: from the S (180 degrees) at 17 MPH (15 knots; 7.7 m/s)
Visibility: 6 or more miles (10+ km)
Ceiling: ceiling and visibility are OK
Clouds: unknown
Weather: no significant weather observed at this time

METAR text: YMML 230630Z 18015KT CAVOK 24/14 Q1014 NOSIG
Conditions at: YMML (MELBOURNE INTL A, AU) observed 0630 UTC 23 January 2019
Temperature: 24.0°C (75°F)
Dewpoint: 14.0°C (57°F) [RH = 54%]
Pressure (altimeter): 29.94 inches Hg (1014.0 mb)
Winds: from the S (180 degrees) at 17 MPH (15 knots; 7.7 m/s)
Visibility: 6 or more miles (10+ km)
Ceiling: ceiling and visibility are OK
Clouds: unknown
Weather: no significant weather observed at this time

METAR text: YMML 230600Z 16014KT CAVOK 25/14 Q1014
Conditions at: YMML (MELBOURNE INTL A, AU) observed 0600 UTC 23 January 2019
Temperature: 25.0°C (77°F)
Dewpoint: 14.0°C (57°F) [RH = 50%]
Pressure (altimeter): 29.94 inches Hg (1014.0 mb)
Winds: from the SSE (160 degrees) at 16 MPH (14 knots; 7.2 m/s)
Visibility: 6 or more miles (10+ km)
Ceiling: ceiling and visibility are OK
Clouds: unknown
Weather: no significant weather observed at this time

METAR text: YMML 230530Z 18013KT CAVOK 24/15 Q1015 NOSIG
Conditions at: YMML (MELBOURNE INTL A, AU) observed 0530 UTC 23 January 2019
Temperature: 24.0°C (75°F)
Dewpoint: 15.0°C (59°F) [RH = 57%]
Pressure (altimeter): 29.97 inches Hg (1015.0 mb)
Winds: from the S (180 degrees) at 15 MPH (13 knots; 6.7 m/s)
Visibility: 6 or more miles (10+ km)
Ceiling: ceiling and visibility are OK
Clouds: unknown
Weather: no significant weather observed at this time

METAR text: YMML 230500Z 18012KT CAVOK 25/14 Q1015
Conditions at: YMML (MELBOURNE INTL A, AU) observed 0500 UTC 23 January 2019
Temperature: 25.0°C (77°F)
Dewpoint: 14.0°C (57°F) [RH = 50%]
Pressure (altimeter): 29.97 inches Hg (1015.0 mb)
Winds: from the S (180 degrees) at 14 MPH (12 knots; 6.2 m/s)
Visibility: 6 or more miles (10+ km)
Ceiling: ceiling and visibility are OK
Clouds: unknown
Weather: no significant weather observed at this time

METAR text: YMML 230430Z 17012KT CAVOK 24/15 Q1015 NOSIG
Conditions at: YMML (MELBOURNE INTL A, AU) observed 0430 UTC 23 January 2019
Temperature: 24.0°C (75°F)
Dewpoint: 15.0°C (59°F) [RH = 57%]
Pressure (altimeter): 29.97 inches Hg (1015.0 mb)
Winds: from the S (170 degrees) at 14 MPH (12 knots; 6.2 m/s)
Visibility: 6 or more miles (10+ km)
Ceiling: ceiling and visibility are OK
Clouds: unknown
Weather: no significant weather observed at this time

METAR text: YMML 230400Z 19015KT CAVOK 24/14 Q1015
Conditions at: YMML (MELBOURNE INTL A, AU) observed 0400 UTC 23 January 2019
Temperature: 24.0°C (75°F)
Dewpoint: 14.0°C (57°F) [RH = 54%]
Pressure (altimeter): 29.97 inches Hg (1015.0 mb)
Winds: from the S (190 degrees) at 17 MPH (15 knots; 7.7 m/s)
Visibility: 6 or more miles (10+ km)
Ceiling: ceiling and visibility are OK
Clouds: unknown
Weather: no significant weather observed at this time

METAR text: YMML 230330Z 16013KT 150V210 CAVOK 24/14 Q1015 NOSIG
Conditions at: YMML (MELBOURNE INTL A, AU) observed 0330 UTC 23 January 2019
Temperature: 24.0°C (75°F)
Dewpoint: 14.0°C (57°F) [RH = 54%]
Pressure (altimeter): 29.97 inches Hg (1015.0 mb)
Winds: from the SSE (160 degrees) at 15 MPH (13 knots; 6.7 m/s)
Visibility: 6 or more miles (10+ km)
Ceiling: ceiling and visibility are OK
Clouds: unknown
Weather: no significant weather observed at this time

METAR text: YMML 230300Z 19012KT 9999 FEW030 24/14 Q1015
Conditions at: YMML (MELBOURNE INTL A, AU) observed 0300 UTC 23 January 2019
Temperature: 24.0°C (75°F)
Dewpoint: 14.0°C (57°F) [RH = 54%]
Pressure (altimeter): 29.97 inches Hg (1015.0 mb)
Winds: from the S (190 degrees) at 14 MPH (12 knots; 6.2 m/s)
Visibility: 6 or more miles (10+ km)
Ceiling: at least 12,000 feet AGL
Clouds: few clouds at 3000 feet AGL
Weather: no significant weather observed at this time

METAR text: YMML 230230Z 17011KT 9999 FEW030 24/14 Q1016 NOSIG
Conditions at: YMML (MELBOURNE INTL A, AU) observed 0230 UTC 23 January 2019
Temperature: 24.0°C (75°F)
Dewpoint: 14.0°C (57°F) [RH = 54%]
Pressure (altimeter): 30.00 inches Hg (1016.0 mb)
Winds: from the S (170 degrees) at 13 MPH (11 knots; 5.7 m/s)
Visibility: 6 or more miles (10+ km)
Ceiling: at least 12,000 feet AGL
Clouds: few clouds at 3000 feet AGL
Weather: no significant weather observed at this time

METAR text: YMML 230200Z 18011KT 9999 FEW030 24/14 Q1016
Conditions at: YMML (MELBOURNE INTL A, AU) observed 0200 UTC 23 January 2019
Temperature: 24.0°C (75°F)
Dewpoint: 14.0°C (57°F) [RH = 54%]
Pressure (altimeter): 30.00 inches Hg (1016.0 mb)
Winds: from the S (180 degrees) at 13 MPH (11 knots; 5.7 m/s)
Visibility: 6 or more miles (10+ km)
Ceiling: at least 12,000 feet AGL
Clouds: few clouds at 3000 feet AGL
Weather: no significant weather observed at this time

METAR text: YMML 230130Z 19013KT 9999 FEW030 23/14 Q1016 NOSIG
Conditions at: YMML (MELBOURNE INTL A, AU) observed 0130 UTC 23 January 2019
Temperature: 23.0°C (73°F)
Dewpoint: 14.0°C (57°F) [RH = 57%]
Pressure (altimeter): 30.00 inches Hg (1016.0 mb)
Winds: from the S (190 degrees) at 15 MPH (13 knots; 6.7 m/s)
Visibility: 6 or more miles (10+ km)
Ceiling: at least 12,000 feet AGL
Clouds: few clouds at 3000 feet AGL
Weather: no significant weather observed at this time

METAR text: YMML 230100Z 19012KT 9999 FEW030 24/14 Q1016 FM0300 18015G25KT CAVOK
Conditions at: YMML (MELBOURNE INTL A, AU) observed 0100 UTC 23 January 2019
Temperature: 24.0°C (75°F)
Dewpoint: 14.0°C (57°F) [RH = 54%]
Pressure (altimeter): 30.00 inches Hg (1016.0 mb)
Winds: from the S (190 degrees) at 14 MPH (12 knots; 6.2 m/s)
Visibility: 6 or more miles (10+ km)
Ceiling: at least 12,000 feet AGL
Clouds: few clouds at 3000 feet AGL
Weather: no significant weather observed at this time

METAR text: YMML 230030Z 15009KT 9999 FEW027 23/14 Q1016 FM0300 18015G25KT CAVOK
Conditions at: YMML (MELBOURNE INTL A, AU) observed 0030 UTC 23 January 2019
Temperature: 23.0°C (73°F)
Dewpoint: 14.0°C (57°F) [RH = 57%]
Pressure (altimeter): 30.00 inches Hg (1016.0 mb)
Winds: from the SSE (150 degrees) at 10 MPH (9 knots; 4.6 m/s)
Visibility: 6 or more miles (10+ km)
Ceiling: at least 12,000 feet AGL
Clouds: few clouds at 2700 feet AGL
Weather: no significant weather observed at this time

METAR text: YMML 230000Z 18007KT 150V220 9999 SCT023 22/14 Q1016 FM0100 17015KT CAVOK
Conditions at: YMML (MELBOURNE INTL A, AU) observed 0000 UTC 23 January 2019
Temperature: 22.0°C (72°F)
Dewpoint: 14.0°C (57°F) [RH = 60%]
Pressure (altimeter): 30.00 inches Hg (1016.0 mb)
Winds: from the S (180 degrees) at 8 MPH (7 knots; 3.6 m/s)
Visibility: 6 or more miles (10+ km)
Ceiling: at least 12,000 feet AGL
Clouds: scattered clouds at 2300 feet AGL
Weather: no significant weather observed at this time

METAR text: YMML 222330Z 15010KT 9999 BKN021 21/14 Q1016 FM0100 17015KT CAVOK
Conditions at: YMML (MELBOURNE INTL A, AU) observed 2330 UTC 22 January 2019
Temperature: 21.0°C (70°F)
Dewpoint: 14.0°C (57°F) [RH = 64%]
Pressure (altimeter): 30.00 inches Hg (1016.0 mb)
Winds: from the SSE (150 degrees) at 12 MPH (10 knots; 5.1 m/s)
Visibility: 6 or more miles (10+ km)
Ceiling: 2100 feet AGL
Clouds: broken clouds at 2100 feet AGL
Weather: no significant weather observed at this time

METAR text: YMML 222300Z 17011KT 9999 FEW018 BKN020 BKN025 20/15 Q1016 FM0100 17015KT CAVOK
Conditions at: YMML (MELBOURNE INTL A, AU) observed 2300 UTC 22 January 2019
Temperature: 20.0°C (68°F)
Dewpoint: 15.0°C (59°F) [RH = 73%]
Pressure (altimeter): 30.00 inches Hg (1016.0 mb)
Winds: from the S (170 degrees) at 13 MPH (11 knots; 5.7 m/s)
Visibility: 6 or more miles (10+ km)
Ceiling: 2000 feet AGL
Clouds: few clouds at 1800 feet AGL
broken clouds at 2000 feet AGL
broken clouds at 2500 feet AGL
Weather: no significant weather observed at this time

METAR text: YMML 222230Z 16011KT 9999 BKN019 BKN025 19/15 Q1016 FM0100 17015KT CAVOK
Conditions at: YMML (MELBOURNE INTL A, AU) observed 2230 UTC 22 January 2019
Temperature: 19.0°C (66°F)
Dewpoint: 15.0°C (59°F) [RH = 78%]
Pressure (altimeter): 30.00 inches Hg (1016.0 mb)
Winds: from the SSE (160 degrees) at 13 MPH (11 knots; 5.7 m/s)
Visibility: 6 or more miles (10+ km)
Ceiling: 1900 feet AGL
Clouds: broken clouds at 1900 feet AGL
broken clouds at 2500 feet AGL
Weather: no significant weather observed at this time

METAR text: YMML 222200Z 15009KT 9999 FEW017 BKN019 BKN025 20/15 Q1016
Conditions at: YMML (MELBOURNE INTL A, AU) observed 2200 UTC 22 January 2019
Temperature: 20.0°C (68°F)
Dewpoint: 15.0°C (59°F) [RH = 73%]
Pressure (altimeter): 30.00 inches Hg (1016.0 mb)
Winds: from the SSE (150 degrees) at 10 MPH (9 knots; 4.6 m/s)
Visibility: 6 or more miles (10+ km)
Ceiling: 1900 feet AGL
Clouds: few clouds at 1700 feet AGL
broken clouds at 1900 feet AGL
broken clouds at 2500 feet AGL
Weather: no significant weather observed at this time

METAR text: YMML 222130Z 15010KT 9999 FEW015 BKN019 BKN025 19/15 Q1016 NOSIG
Conditions at: YMML (MELBOURNE INTL A, AU) observed 2130 UTC 22 January 2019
Temperature: 19.0°C (66°F)
Dewpoint: 15.0°C (59°F) [RH = 78%]
Pressure (altimeter): 30.00 inches Hg (1016.0 mb)
Winds: from the SSE (150 degrees) at 12 MPH (10 knots; 5.1 m/s)
Visibility: 6 or more miles (10+ km)
Ceiling: 1900 feet AGL
Clouds: few clouds at 1500 feet AGL
broken clouds at 1900 feet AGL
broken clouds at 2500 feet AGL
Weather: no significant weather observed at this time

METAR text: YMML 222100Z 16010KT 9999 FEW012 BKN017 BKN020 19/15 Q1015
Conditions at: YMML (MELBOURNE INTL A, AU) observed 2100 UTC 22 January 2019
Temperature: 19.0°C (66°F)
Dewpoint: 15.0°C (59°F) [RH = 78%]
Pressure (altimeter): 29.97 inches Hg (1015.0 mb)
Winds: from the SSE (160 degrees) at 12 MPH (10 knots; 5.1 m/s)
Visibility: 6 or more miles (10+ km)
Ceiling: 1700 feet AGL
Clouds: few clouds at 1200 feet AGL
broken clouds at 1700 feet AGL
broken clouds at 2000 feet AGL
Weather: no significant weather observed at this time

METAR text: YMML 222054Z 16010KT 9999 FEW012 BKN017 BKN020 19/16 Q1015
Conditions at: YMML (MELBOURNE INTL A, AU) observed 2054 UTC 22 January 2019
Temperature: 19.0°C (66°F)
Dewpoint: 16.0°C (61°F) [RH = 83%]
Pressure (altimeter): 29.97 inches Hg (1015.0 mb)
Winds: from the SSE (160 degrees) at 12 MPH (10 knots; 5.1 m/s)
Visibility: 6 or more miles (10+ km)
Ceiling: 1700 feet AGL
Clouds: few clouds at 1200 feet AGL
broken clouds at 1700 feet AGL
broken clouds at 2000 feet AGL
Weather: no significant weather observed at this time

METAR text: YMML 222030Z 15010KT 9999 BKN013 BKN019 19/16 Q1015 FM2100 16012KT 9999 FEW012 BKN018
Conditions at: YMML (MELBOURNE INTL A, AU) observed 2030 UTC 22 January 2019
Temperature: 19.0°C (66°F)
Dewpoint: 16.0°C (61°F) [RH = 83%]
Pressure (altimeter): 29.97 inches Hg (1015.0 mb)
Winds: from the SSE (150 degrees) at 12 MPH (10 knots; 5.1 m/s)
Visibility: 6 or more miles (10+ km)
Ceiling: 1300 feet AGL
Clouds: broken clouds at 1300 feet AGL
broken clouds at 1900 feet AGL
Weather: no significant weather observed at this time

METAR text: YMML 222023Z 15009KT 9999 BKN012 BKN019 19/16 Q1015 FM2030 16012KT 9999 FEW012 BKN018
Conditions at: YMML (MELBOURNE INTL A, AU) observed 2023 UTC 22 January 2019
Temperature: 19.0°C (66°F)
Dewpoint: 16.0°C (61°F) [RH = 83%]
Pressure (altimeter): 29.97 inches Hg (1015.0 mb)
Winds: from the SSE (150 degrees) at 10 MPH (9 knots; 4.6 m/s)
Visibility: 6 or more miles (10+ km)
Ceiling: 1200 feet AGL
Clouds: broken clouds at 1200 feet AGL
broken clouds at 1900 feet AGL
Weather: no significant weather observed at this time

METAR text: YMML 222000Z 19010KT 9999 SCT012 BKN019 19/16 Q1015
Conditions at: YMML (MELBOURNE INTL A, AU) observed 2000 UTC 22 January 2019
Temperature: 19.0°C (66°F)
Dewpoint: 16.0°C (61°F) [RH = 83%]
Pressure (altimeter): 29.97 inches Hg (1015.0 mb)
Winds: from the S (190 degrees) at 12 MPH (10 knots; 5.1 m/s)
Visibility: 6 or more miles (10+ km)
Ceiling: 1900 feet AGL
Clouds: scattered clouds at 1200 feet AGL
broken clouds at 1900 feet AGL
Weather: no significant weather observed at this time

METAR text: YMML 221930Z 21008KT 9999 FEW007 BKN012 18/16 Q1014 FM2030 16012KT 9999 FEW012 BKN018 TEMPO 1930/2000 3000 DZ BKN005
Conditions at: YMML (MELBOURNE INTL A, AU) observed 1930 UTC 22 January 2019
Temperature: 18.0°C (64°F)
Dewpoint: 16.0°C (61°F) [RH = 88%]
Pressure (altimeter): 29.94 inches Hg (1014.0 mb)
Winds: from the SSW (210 degrees) at 9 MPH (8 knots; 4.1 m/s)
Visibility: 6 or more miles (10+ km)
Ceiling: 1200 feet AGL
Clouds: few clouds at 700 feet AGL
broken clouds at 1200 feet AGL
Weather: no significant weather observed at this time

METAR text: YMML 221900Z 21007KT 9999 BKN010 BKN014 18/16 Q1014 FM2000 16012KT 9999 FEW012 BKN018 TEMPO 1900/2000 3000 DZ BKN005
Conditions at: YMML (MELBOURNE INTL A, AU) observed 1900 UTC 22 January 2019
Temperature: 18.0°C (64°F)
Dewpoint: 16.0°C (61°F) [RH = 88%]
Pressure (altimeter): 29.94 inches Hg (1014.0 mb)
Winds: from the SSW (210 degrees) at 8 MPH (7 knots; 3.6 m/s)
Visibility: 6 or more miles (10+ km)
Ceiling: 1000 feet AGL
Clouds: broken clouds at 1000 feet AGL
broken clouds at 1400 feet AGL
Weather: no significant weather observed at this time

METAR text: YMML 221830Z 20006KT 9999 SCT010 BKN014 18/16 Q1014 FM1845 19008KT 9999 BKN010 TEMPO 1830/2000 3000 DZ BKN005
Conditions at: YMML (MELBOURNE INTL A, AU) observed 1830 UTC 22 January 2019
Temperature: 18.0°C (64°F)
Dewpoint: 16.0°C (61°F) [RH = 88%]
Pressure (altimeter): 29.94 inches Hg (1014.0 mb)
Winds: from the SSW (200 degrees) at 7 MPH (6 knots; 3.1 m/s)
Visibility: 6 or more miles (10+ km)
Ceiling: 1400 feet AGL
Clouds: scattered clouds at 1000 feet AGL
broken clouds at 1400 feet AGL
Weather: no significant weather observed at this time

METAR text: YMML 221800Z 21005KT 9999 FEW006 SCT010 BKN015 18/16 Q1014 FM1810 19008KT 9999 BKN010 TEMPO 1800/2100 3000 DZ BKN005
Conditions at: YMML (MELBOURNE INTL A, AU) observed 1800 UTC 22 January 2019
Temperature: 18.0°C (64°F)
Dewpoint: 16.0°C (61°F) [RH = 88%]
Pressure (altimeter): 29.94 inches Hg (1014.0 mb)
Winds: from the SSW (210 degrees) at 6 MPH (5 knots; 2.6 m/s)
Visibility: 6 or more miles (10+ km)
Ceiling: 1500 feet AGL
Clouds: few clouds at 600 feet AGL
scattered clouds at 1000 feet AGL
broken clouds at 1500 feet AGL
Weather: no significant weather observed at this time

METAR text: YMML 221730Z 20005KT 9999 BKN007 BKN012 18/16 Q1014 FM1745 19008KT 9999 BKN010
Conditions at: YMML (MELBOURNE INTL A, AU) observed 1730 UTC 22 January 2019
Temperature: 18.0°C (64°F)
Dewpoint: 16.0°C (61°F) [RH = 88%]
Pressure (altimeter): 29.94 inches Hg (1014.0 mb)
Winds: from the SSW (200 degrees) at 6 MPH (5 knots; 2.6 m/s)
Visibility: 6 or more miles (10+ km)
Ceiling: 700 feet AGL
Clouds: broken clouds at 700 feet AGL
broken clouds at 1200 feet AGL
Weather: no significant weather observed at this time

METAR text: YMML 221700Z 21005KT 9999 BKN010 17/15 Q1013
Conditions at: YMML (MELBOURNE INTL A, AU) observed 1700 UTC 22 January 2019
Temperature: 17.0°C (63°F)
Dewpoint: 15.0°C (59°F) [RH = 88%]
Pressure (altimeter): 29.91 inches Hg (1013.0 mb)
Winds: from the SSW (210 degrees) at 6 MPH (5 knots; 2.6 m/s)
Visibility: 6 or more miles (10+ km)
Ceiling: 1000 feet AGL
Clouds: broken clouds at 1000 feet AGL
Weather: no significant weather observed at this time

METAR text: YMML 221653Z 22006KT 9999 BKN010 16/15 Q1013
Conditions at: YMML (MELBOURNE INTL A, AU) observed 1653 UTC 22 January 2019
Temperature: 16.0°C (61°F)
Dewpoint: 15.0°C (59°F) [RH = 94%]
Pressure (altimeter): 29.91 inches Hg (1013.0 mb)
Winds: from the SW (220 degrees) at 7 MPH (6 knots; 3.1 m/s)
Visibility: 6 or more miles (10+ km)
Ceiling: 1000 feet AGL
Clouds: broken clouds at 1000 feet AGL
Weather: no significant weather observed at this time

METAR text: YMML 221630Z 20006KT 9999 FEW012 16/15 Q1013 FM1640 19008KT 9999 BKN010
Conditions at: YMML (MELBOURNE INTL A, AU) observed 1630 UTC 22 January 2019
Temperature: 16.0°C (61°F)
Dewpoint: 15.0°C (59°F) [RH = 94%]
Pressure (altimeter): 29.91 inches Hg (1013.0 mb)
Winds: from the SSW (200 degrees) at 7 MPH (6 knots; 3.1 m/s)
Visibility: 6 or more miles (10+ km)
Ceiling: at least 12,000 feet AGL
Clouds: few clouds at 1200 feet AGL
Weather: no significant weather observed at this time

METAR text: YMML 221600Z 23002KT CAVOK 16/15 Q1013 FM1630 19008KT 9999 BKN010
Conditions at: YMML (MELBOURNE INTL A, AU) observed 1600 UTC 22 January 2019
Temperature: 16.0°C (61°F)
Dewpoint: 15.0°C (59°F) [RH = 94%]
Pressure (altimeter): 29.91 inches Hg (1013.0 mb)
Winds: from the SW (230 degrees) at 2 MPH (2 knots; 1.0 m/s)
Visibility: 6 or more miles (10+ km)
Ceiling: ceiling and visibility are OK
Clouds: unknown
Weather: no significant weather observed at this time

METAR text: YMML 221530Z 24004KT CAVOK 17/15 Q1013 FM1630 19008KT 9999 BKN010
Conditions at: YMML (MELBOURNE INTL A, AU) observed 1530 UTC 22 January 2019
Temperature: 17.0°C (63°F)
Dewpoint: 15.0°C (59°F) [RH = 88%]
Pressure (altimeter): 29.91 inches Hg (1013.0 mb)
Winds: from the WSW (240 degrees) at 5 MPH (4 knots; 2.1 m/s)
Visibility: 6 or more miles (10+ km)
Ceiling: ceiling and visibility are OK
Clouds: unknown
Weather: no significant weather observed at this time

METAR text: YMML 221500Z 31007KT CAVOK 17/15 Q1013 FM1630 19008KT 9999 BKN010
Conditions at: YMML (MELBOURNE INTL A, AU) observed 1500 UTC 22 January 2019
Temperature: 17.0°C (63°F)
Dewpoint: 15.0°C (59°F) [RH = 88%]
Pressure (altimeter): 29.91 inches Hg (1013.0 mb)
Winds: from the NW (310 degrees) at 8 MPH (7 knots; 3.6 m/s)
Visibility: 6 or more miles (10+ km)
Ceiling: ceiling and visibility are OK
Clouds: unknown
Weather: no significant weather observed at this time

METAR text: YMML 221430Z 25005KT CAVOK 18/16 Q1014 FM1600 19008KT 9999 BKN010
Conditions at: YMML (MELBOURNE INTL A, AU) observed 1430 UTC 22 January 2019
Temperature: 18.0°C (64°F)
Dewpoint: 16.0°C (61°F) [RH = 88%]
Pressure (altimeter): 29.94 inches Hg (1014.0 mb)
Winds: from the WSW (250 degrees) at 6 MPH (5 knots; 2.6 m/s)
Visibility: 6 or more miles (10+ km)
Ceiling: ceiling and visibility are OK
Clouds: unknown
Weather: no significant weather observed at this time

METAR text: YMML 221400Z 22007KT CAVOK 18/16 Q1014 FM1500 19008KT 9999 BKN010
Conditions at: YMML (MELBOURNE INTL A, AU) observed 1400 UTC 22 January 2019
Temperature: 18.0°C (64°F)
Dewpoint: 16.0°C (61°F) [RH = 88%]
Pressure (altimeter): 29.94 inches Hg (1014.0 mb)
Winds: from the SW (220 degrees) at 8 MPH (7 knots; 3.6 m/s)
Visibility: 6 or more miles (10+ km)
Ceiling: ceiling and visibility are OK
Clouds: unknown
Weather: no significant weather observed at this time

METAR text: YMML 221330Z 22007KT CAVOK 19/16 Q1014 FM1430 19008KT 9999 BKN010
Conditions at: YMML (MELBOURNE INTL A, AU) observed 1330 UTC 22 January 2019
Temperature: 19.0°C (66°F)
Dewpoint: 16.0°C (61°F) [RH = 83%]
Pressure (altimeter): 29.94 inches Hg (1014.0 mb)
Winds: from the SW (220 degrees) at 8 MPH (7 knots; 3.6 m/s)
Visibility: 6 or more miles (10+ km)
Ceiling: ceiling and visibility are OK
Clouds: unknown
Weather: no significant weather observed at this time

METAR text: YMML 221300Z 22007KT CAVOK 18/16 Q1014 FM1430 19008KT 9999 BKN010
Conditions at: YMML (MELBOURNE INTL A, AU) observed 1300 UTC 22 January 2019
Temperature: 18.0°C (64°F)
Dewpoint: 16.0°C (61°F) [RH = 88%]
Pressure (altimeter): 29.94 inches Hg (1014.0 mb)
Winds: from the SW (220 degrees) at 8 MPH (7 knots; 3.6 m/s)
Visibility: 6 or more miles (10+ km)
Ceiling: ceiling and visibility are OK
Clouds: unknown
Weather: no significant weather observed at this time

METAR text: YMML 221230Z 22006KT CAVOK 18/16 Q1013 FM1400 19008KT 9999 BKN010
Conditions at: YMML (MELBOURNE INTL A, AU) observed 1230 UTC 22 January 2019
Temperature: 18.0°C (64°F)
Dewpoint: 16.0°C (61°F) [RH = 88%]
Pressure (altimeter): 29.91 inches Hg (1013.0 mb)
Winds: from the SW (220 degrees) at 7 MPH (6 knots; 3.1 m/s)
Visibility: 6 or more miles (10+ km)
Ceiling: ceiling and visibility are OK
Clouds: unknown
Weather: no significant weather observed at this time

METAR text: YMML 221200Z 23004KT CAVOK 19/16 Q1014 FM1330 19008KT 9999 BKN010
Conditions at: YMML (MELBOURNE INTL A, AU) observed 1200 UTC 22 January 2019
Temperature: 19.0°C (66°F)
Dewpoint: 16.0°C (61°F) [RH = 83%]
Pressure (altimeter): 29.94 inches Hg (1014.0 mb)
Winds: from the SW (230 degrees) at 5 MPH (4 knots; 2.1 m/s)
Visibility: 6 or more miles (10+ km)
Ceiling: ceiling and visibility are OK
Clouds: unknown
Weather: no significant weather observed at this time

METAR text: YMML 221130Z 21006KT CAVOK 19/16 Q1014 FM1330 19008KT 9999 BKN010
Conditions at: YMML (MELBOURNE INTL A, AU) observed 1130 UTC 22 January 2019
Temperature: 19.0°C (66°F)
Dewpoint: 16.0°C (61°F) [RH = 83%]
Pressure (altimeter): 29.94 inches Hg (1014.0 mb)
Winds: from the SSW (210 degrees) at 7 MPH (6 knots; 3.1 m/s)
Visibility: 6 or more miles (10+ km)
Ceiling: ceiling and visibility are OK
Clouds: unknown
Weather: no significant weather observed at this time

METAR text: YMML 221100Z 21005KT CAVOK 20/16 Q1013
Conditions at: YMML (MELBOURNE INTL A, AU) observed 1100 UTC 22 January 2019
Temperature: 20.0°C (68°F)
Dewpoint: 16.0°C (61°F) [RH = 78%]
Pressure (altimeter): 29.91 inches Hg (1013.0 mb)
Winds: from the SSW (210 degrees) at 6 MPH (5 knots; 2.6 m/s)
Visibility: 6 or more miles (10+ km)
Ceiling: ceiling and visibility are OK
Clouds: unknown
Weather: no significant weather observed at this time

METAR text: YMML 221030Z 20007KT CAVOK 21/17 Q1013 NOSIG
Conditions at: YMML (MELBOURNE INTL A, AU) observed 1030 UTC 22 January 2019
Temperature: 21.0°C (70°F)
Dewpoint: 17.0°C (63°F) [RH = 78%]
Pressure (altimeter): 29.91 inches Hg (1013.0 mb)
Winds: from the SSW (200 degrees) at 8 MPH (7 knots; 3.6 m/s)
Visibility: 6 or more miles (10+ km)
Ceiling: ceiling and visibility are OK
Clouds: unknown
Weather: no significant weather observed at this time

METAR text: YMML 221000Z 18009KT CAVOK 22/16 Q1013
Conditions at: YMML (MELBOURNE INTL A, AU) observed 1000 UTC 22 January 2019
Temperature: 22.0°C (72°F)
Dewpoint: 16.0°C (61°F) [RH = 69%]
Pressure (altimeter): 29.91 inches Hg (1013.0 mb)
Winds: from the S (180 degrees) at 10 MPH (9 knots; 4.6 m/s)
Visibility: 6 or more miles (10+ km)
Ceiling: ceiling and visibility are OK
Clouds: unknown
Weather: no significant weather observed at this time

METAR text: YMML 220930Z 18010KT CAVOK 23/16 Q1012 NOSIG
Conditions at: YMML (MELBOURNE INTL A, AU) observed 0930 UTC 22 January 2019
Temperature: 23.0°C (73°F)
Dewpoint: 16.0°C (61°F) [RH = 65%]
Pressure (altimeter): 29.88 inches Hg (1012.0 mb)
Winds: from the S (180 degrees) at 12 MPH (10 knots; 5.1 m/s)
Visibility: 6 or more miles (10+ km)
Ceiling: ceiling and visibility are OK
Clouds: unknown
Weather: no significant weather observed at this time

METAR text: YMML 220900Z 17012KT CAVOK 25/16 Q1012
Conditions at: YMML (MELBOURNE INTL A, AU) observed 0900 UTC 22 January 2019
Temperature: 25.0°C (77°F)
Dewpoint: 16.0°C (61°F) [RH = 57%]
Pressure (altimeter): 29.88 inches Hg (1012.0 mb)
Winds: from the S (170 degrees) at 14 MPH (12 knots; 6.2 m/s)
Visibility: 6 or more miles (10+ km)
Ceiling: ceiling and visibility are OK
Clouds: unknown
Weather: no significant weather observed at this time

METAR text: YMML 220830Z 17011KT CAVOK 26/16 Q1011 NOSIG
Conditions at: YMML (MELBOURNE INTL A, AU) observed 0830 UTC 22 January 2019
Temperature: 26.0°C (79°F)
Dewpoint: 16.0°C (61°F) [RH = 54%]
Pressure (altimeter): 29.85 inches Hg (1011.0 mb)
Winds: from the S (170 degrees) at 13 MPH (11 knots; 5.7 m/s)
Visibility: 6 or more miles (10+ km)
Ceiling: ceiling and visibility are OK
Clouds: unknown
Weather: no significant weather observed at this time

METAR text: YMML 220800Z 18011KT CAVOK 27/17 Q1011
Conditions at: YMML (MELBOURNE INTL A, AU) observed 0800 UTC 22 January 2019
Temperature: 27.0°C (81°F)
Dewpoint: 17.0°C (63°F) [RH = 54%]
Pressure (altimeter): 29.85 inches Hg (1011.0 mb)
Winds: from the S (180 degrees) at 13 MPH (11 knots; 5.7 m/s)
Visibility: 6 or more miles (10+ km)
Ceiling: ceiling and visibility are OK
Clouds: unknown
Weather: no significant weather observed at this time

METAR text: YMML 220730Z 17013KT CAVOK 28/16 Q1011 NOSIG
Conditions at: YMML (MELBOURNE INTL A, AU) observed 0730 UTC 22 January 2019
Temperature: 28.0°C (82°F)
Dewpoint: 16.0°C (61°F) [RH = 48%]
Pressure (altimeter): 29.85 inches Hg (1011.0 mb)
Winds: from the S (170 degrees) at 15 MPH (13 knots; 6.7 m/s)
Visibility: 6 or more miles (10+ km)
Ceiling: ceiling and visibility are OK
Clouds: unknown
Weather: no significant weather observed at this time

METAR text: YMML 220700Z 17009KT CAVOK 29/16 Q1010
Conditions at: YMML (MELBOURNE INTL A, AU) observed 0700 UTC 22 January 2019
Temperature: 29.0°C (84°F)
Dewpoint: 16.0°C (61°F) [RH = 45%]
Pressure (altimeter): 29.82 inches Hg (1010.0 mb)
Winds: from the S (170 degrees) at 10 MPH (9 knots; 4.6 m/s)
Visibility: 6 or more miles (10+ km)
Ceiling: ceiling and visibility are OK
Clouds: unknown
Weather: no significant weather observed at this time

METAR text: YMML 220630Z 17013KT CAVOK 29/16 Q1010 NOSIG
Conditions at: YMML (MELBOURNE INTL A, AU) observed 0630 UTC 22 January 2019
Temperature: 29.0°C (84°F)
Dewpoint: 16.0°C (61°F) [RH = 45%]
Pressure (altimeter): 29.82 inches Hg (1010.0 mb)
Winds: from the S (170 degrees) at 15 MPH (13 knots; 6.7 m/s)
Visibility: 6 or more miles (10+ km)
Ceiling: ceiling and visibility are OK
Clouds: unknown
Weather: no significant weather observed at this time

METAR text: YMML 220600Z 17012KT CAVOK 30/14 Q1010
Conditions at: YMML (MELBOURNE INTL A, AU) observed 0600 UTC 22 January 2019
Temperature: 30.0°C (86°F)
Dewpoint: 14.0°C (57°F) [RH = 38%]
Pressure (altimeter): 29.82 inches Hg (1010.0 mb)
Winds: from the S (170 degrees) at 14 MPH (12 knots; 6.2 m/s)
Visibility: 6 or more miles (10+ km)
Ceiling: ceiling and visibility are OK
Clouds: unknown
Weather: no significant weather observed at this time

METAR text: YMML 220530Z 18012KT CAVOK 30/15 Q1010 NOSIG
Conditions at: YMML (MELBOURNE INTL A, AU) observed 0530 UTC 22 January 2019
Temperature: 30.0°C (86°F)
Dewpoint: 15.0°C (59°F) [RH = 40%]
Pressure (altimeter): 29.82 inches Hg (1010.0 mb)
Winds: from the S (180 degrees) at 14 MPH (12 knots; 6.2 m/s)
Visibility: 6 or more miles (10+ km)
Ceiling: ceiling and visibility are OK
Clouds: unknown
Weather: no significant weather observed at this time

METAR text: YMML 220500Z 18012KT CAVOK 30/17 Q1010
Conditions at: YMML (MELBOURNE INTL A, AU) observed 0500 UTC 22 January 2019
Temperature: 30.0°C (86°F)
Dewpoint: 17.0°C (63°F) [RH = 46%]
Pressure (altimeter): 29.82 inches Hg (1010.0 mb)
Winds: from the S (180 degrees) at 14 MPH (12 knots; 6.2 m/s)
Visibility: 6 or more miles (10+ km)
Ceiling: ceiling and visibility are OK
Clouds: unknown
Weather: no significant weather observed at this time

METAR text: YMML 220430Z 17011KT CAVOK 30/17 Q1011 NOSIG
Conditions at: YMML (MELBOURNE INTL A, AU) observed 0430 UTC 22 January 2019
Temperature: 30.0°C (86°F)
Dewpoint: 17.0°C (63°F) [RH = 46%]
Pressure (altimeter): 29.85 inches Hg (1011.0 mb)
Winds: from the S (170 degrees) at 13 MPH (11 knots; 5.7 m/s)
Visibility: 6 or more miles (10+ km)
Ceiling: ceiling and visibility are OK
Clouds: unknown
Weather: no significant weather observed at this time

METAR text: YMML 220400Z 18011KT CAVOK 30/17 Q1011
Conditions at: YMML (MELBOURNE INTL A, AU) observed 0400 UTC 22 January 2019
Temperature: 30.0°C (86°F)
Dewpoint: 17.0°C (63°F) [RH = 46%]
Pressure (altimeter): 29.85 inches Hg (1011.0 mb)
Winds: from the S (180 degrees) at 13 MPH (11 knots; 5.7 m/s)
Visibility: 6 or more miles (10+ km)
Ceiling: ceiling and visibility are OK
Clouds: unknown
Weather: no significant weather observed at this time

Forecast for: AMD
Text: TAF AMD YMML 231304Z 2313/2418 24006KT 9999 BKN015
Forecast period: 1300 UTC 23 January 2019 to 1800 UTC 24 January 2019
Forecast type: FROM: standard forecast or significant change
Winds: from the WSW (240 degrees) at 7 MPH (6 knots; 3.1 m/s)
Visibility: 6 or more miles 10+ km)
Ceiling: 1500 feet AGL
Clouds: broken clouds at 1500 feet AGL
Weather: no significant weather forecast for this period
Text: BECMG 2313/2315 29006KT 9999 SCT006 BKN008
Forecast period: 1300 to 2200 UTC 23 January 2019
Forecast type: BECOMING: Conditions expected to become as follows by 1500 UTC 23 January 2019
Winds: from the WNW (290 degrees) at 7 MPH (6 knots; 3.1 m/s)
Visibility: 6 or more miles 10+ km)
Ceiling: 800 feet AGL
Clouds: scattered clouds at 600 feet AGL
broken clouds at 800 feet AGL
Weather: no significant weather forecast for this period
Text: BECMG 2322/2324 06006KT CAVOK
Forecast period: 2200 UTC 23 January 2019 to 1100 UTC 24 January 2019
Forecast type: BECOMING: Conditions expected to become as follows by 0000 UTC 24 January 2019
Winds: from the ENE (60 degrees) at 7 MPH (6 knots; 3.1 m/s)
Visibility: 6 or more miles 10+ km)
Ceiling: unknown
Clouds: missing
Weather: NSW  (no significant weather)
Text: FM241100 01010KT CAVOK
Forecast period: 1100 to 1400 UTC 24 January 2019
Forecast type: FROM: standard forecast or significant change
Winds: from the N (10 degrees) at 12 MPH (10 knots; 5.1 m/s)
Visibility: 6 or more miles 10+ km)
Ceiling: unknown
Clouds: missing
Weather: NSW  (no significant weather)
Text: BECMG 2414/2416 36016G26KT CAVOK
Forecast period: 1400 to 1800 UTC 24 January 2019
Forecast type: BECOMING: Conditions expected to become as follows by 1600 UTC 24 January 2019
Winds: from the N (360 degrees) at 18 MPH (16 knots; 8.2 m/s)
gusting to 30 MPH (26 knots; 13.4 m/s)
Visibility: 6 or more miles 10+ km)
Ceiling: unknown
Clouds: missing
Weather: NSW  (no significant weather)
Text: TEMPO 2315/2322 5000 HZ BKN005
Forecast period: 1500 to 2200 UTC 23 January 2019
Forecast type: TEMPORARY: The following changes expected for less than half the time period
Visibility: 3 miles (5 km)
Ceiling: 500 feet AGL
Clouds: broken clouds at 500 feet AGL
Weather: HZ  (haze)